createdAt,value
2023-03-18T00:01:16.241Z,5.40
2023-03-18T00:06:19.876Z,4.80
2023-03-18T00:11:21.704Z,7.20
2023-03-18T00:16:23.571Z,3.30
2023-03-18T00:21:25.269Z,4.00
2023-03-18T00:26:28.578Z,3.50
2023-03-18T00:31:30.453Z,4.30
2023-03-18T00:36:32.427Z,4.40
2023-03-18T00:41:36.428Z,5.40
2023-03-18T00:46:38.459Z,5.30
2023-03-18T00:51:42.189Z,4.90
2023-03-18T00:56:43.942Z,4.70
2023-03-18T01:01:45.498Z,4.70
2023-03-18T01:06:47.025Z,3.50
2023-03-18T01:11:48.513Z,3.60
2023-03-18T01:16:50.050Z,4.20
2023-03-18T01:21:51.706Z,3.20
2023-03-18T01:26:53.883Z,4.30
2023-03-18T01:31:55.915Z,4.00
2023-03-18T01:36:58.288Z,9.20
2023-03-18T01:42:00.736Z,5.20
2023-03-18T01:47:03.463Z,8.80
2023-03-18T01:52:27.250Z,5.90
2023-03-18T01:57:30.149Z,3.90
2023-03-18T02:02:34.067Z,5.90
2023-03-18T02:07:37.171Z,4.70
2023-03-18T02:12:42.323Z,4.60
2023-03-18T02:17:53.634Z,4.30
2023-03-18T02:23:03.507Z,5.50
2023-03-18T02:28:10.773Z,4.60
2023-03-18T02:33:15.103Z,3.70
2023-03-18T02:43:18.046Z,3.70
2023-03-18T02:48:23.776Z,4.10
2023-03-18T02:53:26.319Z,3.70
2023-03-18T02:58:28.272Z,5.80
2023-03-18T03:03:29.969Z,5.20
2023-03-18T03:08:31.962Z,8.40
2023-03-18T03:13:33.698Z,6.10
2023-03-18T03:18:35.658Z,4.00
2023-03-18T03:23:38.058Z,6.40
2023-03-18T03:28:39.869Z,5.30
2023-03-18T03:33:43.572Z,14.10
2023-03-18T03:38:45.997Z,12.30
2023-03-18T03:43:47.577Z,5.40
2023-03-18T03:48:49.812Z,3.70
2023-03-18T03:53:51.498Z,5.60
2023-03-18T03:58:53.614Z,4.10
2023-03-18T04:03:55.793Z,3.40
2023-03-18T04:08:57.342Z,3.80
2023-03-18T04:13:58.885Z,5.40
2023-03-18T04:19:00.466Z,3.50
2023-03-18T04:24:03.980Z,3.60
2023-03-18T04:29:05.737Z,3.90
2023-03-18T04:34:07.285Z,3.50
2023-03-18T04:39:10.439Z,4.40
2023-03-18T04:44:11.999Z,6.10
2023-03-18T04:49:13.552Z,4.50
2023-03-18T04:54:15.092Z,3.00
2023-03-18T04:59:17.079Z,4.00
2023-03-18T05:04:18.691Z,3.40
2023-03-18T05:09:20.237Z,3.40
2023-03-18T05:14:22.101Z,3.30
2023-03-18T05:19:25.311Z,3.70
2023-03-18T05:24:27.507Z,4.00
2023-03-18T05:29:29.085Z,3.50
2023-03-18T05:34:31.472Z,4.00
2023-03-18T05:39:33.920Z,2.80
2023-03-18T05:44:35.800Z,7.20
2023-03-18T05:49:37.626Z,4.50
2023-03-18T05:54:39.554Z,3.60
2023-03-18T05:59:41.465Z,4.20
2023-03-18T06:04:43.010Z,4.90
2023-03-18T06:09:44.690Z,5.00
2023-03-18T06:14:46.670Z,5.30
2023-03-18T06:19:48.336Z,5.80
2023-03-18T06:24:49.826Z,7.90
2023-03-18T06:29:51.504Z,3.30
2023-03-18T06:34:52.994Z,3.60
2023-03-18T06:39:54.575Z,4.30
2023-03-18T06:44:56.048Z,4.00
2023-03-18T06:49:58.050Z,3.80
2023-03-18T06:55:00.438Z,4.70
2023-03-18T07:00:02.695Z,4.90
2023-03-18T07:05:04.688Z,4.40
2023-03-18T07:10:09.305Z,4.30
2023-03-18T07:15:11.716Z,4.90
2023-03-18T07:20:14.041Z,4.70
2023-03-18T07:25:15.586Z,5.20
2023-03-18T07:30:18.891Z,4.20
2023-03-18T07:35:20.711Z,4.00
2023-03-18T07:40:23.569Z,4.60
2023-03-18T07:45:25.668Z,3.70
2023-03-18T07:50:27.938Z,3.80
2023-03-18T07:55:29.510Z,4.60
2023-03-18T08:00:39.267Z,11.70
2023-03-18T08:05:41.333Z,4.80
2023-03-18T08:10:42.970Z,3.80
2023-03-18T08:15:44.572Z,3.50
2023-03-18T08:20:46.078Z,3.40
2023-03-18T08:25:52.194Z,4.30
2023-03-18T08:30:56.064Z,4.40
2023-03-18T08:40:59.794Z,3.90
2023-03-18T08:46:01.427Z,5.00
2023-03-18T08:51:04.893Z,3.10
2023-03-18T08:56:07.875Z,4.20
2023-03-18T09:01:11.904Z,4.80
2023-03-18T09:06:14.279Z,4.40
2023-03-18T09:11:16.352Z,6.50
2023-03-18T09:16:18.512Z,4.40
2023-03-18T09:21:20.320Z,5.70
2023-03-18T09:26:22.007Z,4.70
2023-03-18T09:31:23.552Z,4.30
2023-03-18T09:36:25.124Z,4.00
2023-03-18T09:41:32.648Z,3.90
2023-03-18T09:47:00.675Z,5.20
2023-03-18T09:52:23.753Z,4.20
2023-03-18T09:57:46.161Z,4.70
2023-03-18T10:02:56.468Z,4.80
2023-03-18T10:08:05.775Z,4.60
2023-03-18T10:13:23.025Z,4.60
2023-03-18T10:18:34.707Z,3.50
2023-03-18T10:23:52.573Z,3.20
2023-03-18T10:29:12.218Z,4.00
2023-03-18T10:34:23.781Z,4.60
2023-03-18T10:39:27.700Z,4.20
2023-03-18T10:44:36.843Z,4.20
2023-03-18T10:49:47.385Z,4.60
2023-03-18T10:54:52.680Z,5.20
2023-03-18T10:59:54.662Z,4.50
2023-03-18T11:05:06.832Z,4.10
2023-03-18T11:10:15.213Z,7.20
2023-03-18T11:15:20.500Z,5.50
2023-03-18T11:20:32.090Z,5.90
2023-03-18T11:25:34.021Z,4.70
2023-03-18T11:30:50.230Z,5.00
2023-03-18T11:35:58.708Z,3.30
2023-03-18T11:41:17.009Z,4.10
2023-03-18T11:46:19.056Z,4.40
2023-03-18T11:51:46.661Z,4.20
2023-03-18T11:56:54.087Z,4.10
2023-03-18T12:02:17.614Z,5.10
2023-03-18T12:07:43.800Z,6.00
2023-03-18T12:12:54.584Z,4.30
2023-03-18T12:18:25.678Z,4.20
2023-03-18T12:23:54.690Z,4.60
2023-03-18T12:29:22.358Z,4.20
2023-03-18T12:35:02.766Z,3.50
2023-03-18T12:40:34.180Z,3.80
2023-03-18T12:45:40.897Z,4.00
2023-03-18T12:50:54.707Z,4.20
2023-03-18T12:56:04.921Z,4.50
2023-03-18T13:01:18.172Z,5.10
2023-03-18T13:06:36.012Z,4.20
2023-03-18T13:12:12.571Z,4.70
2023-03-18T13:17:20.673Z,5.70
2023-03-18T13:23:10.014Z,6.90
2023-03-18T13:28:42.609Z,6.30
2023-03-18T13:33:59.245Z,7.70
2023-03-18T13:39:15.512Z,8.00
2023-03-18T13:44:31.958Z,8.10
2023-03-18T13:49:34.136Z,9.50
2023-03-18T13:54:38.733Z,5.80
2023-03-18T13:59:40.198Z,8.10
2023-03-18T14:04:48.096Z,7.60
2023-03-18T14:09:52.481Z,9.10
2023-03-18T14:15:03.645Z,5.60
2023-03-18T14:20:21.906Z,5.50
2023-03-18T14:25:39.499Z,11.00
2023-03-18T14:31:00.919Z,9.30
2023-03-18T14:36:10.318Z,8.80
2023-03-18T14:41:37.183Z,7.70
2023-03-18T14:46:43.050Z,10.20
2023-03-18T14:51:55.832Z,10.10
2023-03-18T14:56:58.120Z,9.90
2023-03-18T15:02:03.387Z,10.90
2023-03-18T15:07:08.241Z,7.30
2023-03-18T15:12:19.538Z,10.80
2023-03-18T15:17:27.427Z,10.40
2023-03-18T15:22:31.513Z,13.90
2023-03-18T15:27:35.105Z,10.40
2023-03-18T15:32:49.921Z,7.40
2023-03-18T15:38:28.759Z,8.90
2023-03-18T15:48:54.948Z,12.50
2023-03-18T15:54:09.407Z,10.10
2023-03-18T15:59:18.758Z,17.90
2023-03-18T16:09:25.365Z,39.20
2023-03-18T16:14:39.680Z,28.40
2023-03-18T16:19:41.494Z,22.50
2023-03-18T16:24:43.945Z,14.90
2023-03-18T16:29:45.462Z,26.20
2023-03-18T16:34:47.489Z,26.50
2023-03-18T16:39:49.084Z,21.40
2023-03-18T16:44:51.704Z,25.10
2023-03-18T16:49:54.450Z,22.80
2023-03-18T16:54:56.017Z,21.60
2023-03-18T16:59:58.984Z,20.20
2023-03-18T17:05:01.787Z,22.90
2023-03-18T17:10:04.000Z,27.20
2023-03-18T17:15:07.419Z,23.80
2023-03-18T17:20:21.113Z,27.80
2023-03-18T17:25:27.236Z,27.30
2023-03-18T17:30:44.504Z,27.10
2023-03-18T17:35:46.182Z,28.60
2023-03-18T17:40:49.170Z,123.80
2023-03-18T17:45:50.802Z,41.90
2023-03-18T17:50:55.777Z,22.30
2023-03-18T17:55:57.714Z,24.60
2023-03-18T18:01:17.559Z,18.70
2023-03-18T18:06:29.285Z,20.80
2023-03-18T18:11:35.516Z,18.00
2023-03-18T18:16:37.595Z,19.40
2023-03-18T18:21:39.500Z,21.50
2023-03-18T18:26:41.049Z,18.30
2023-03-18T18:31:44.920Z,21.60
2023-03-18T18:36:46.673Z,49.60
2023-03-18T18:41:48.869Z,68.10
2023-03-18T18:46:50.791Z,57.40
2023-03-18T18:51:55.068Z,30.40
2023-03-18T18:56:58.711Z,21.50
2023-03-18T19:02:01.099Z,29.30
2023-03-18T19:07:06.562Z,24.00
2023-03-18T19:12:15.612Z,22.40
2023-03-18T19:17:20.000Z,17.30
2023-03-18T19:22:22.215Z,16.70
2023-03-18T19:27:27.604Z,15.60
2023-03-18T19:32:29.239Z,18.40
2023-03-18T19:37:32.680Z,16.90
2023-03-18T19:42:35.418Z,15.50
2023-03-18T19:47:37.515Z,18.90
2023-03-18T19:52:39.027Z,15.60
2023-03-18T19:57:41.671Z,15.10
2023-03-18T20:02:43.859Z,16.50
2023-03-18T20:07:46.366Z,14.00
2023-03-18T20:12:49.481Z,15.60
2023-03-18T20:17:51.930Z,15.10
2023-03-18T20:23:03.572Z,14.10
2023-03-18T20:28:06.447Z,10.90
2023-03-18T20:33:08.380Z,14.60
2023-03-18T20:38:22.185Z,11.80
2023-03-18T20:43:27.893Z,12.20
2023-03-18T20:48:29.474Z,13.40
2023-03-18T20:53:31.767Z,11.10
2023-03-18T20:58:33.372Z,11.30
2023-03-18T21:03:35.511Z,11.00
2023-03-18T21:08:37.209Z,12.90
2023-03-18T21:13:39.495Z,12.90
2023-03-18T21:18:49.986Z,10.50
2023-03-18T21:23:55.011Z,11.30
2023-03-18T21:28:57.693Z,12.00
2023-03-18T21:34:00.186Z,11.50
2023-03-18T21:39:01.663Z,11.90
2023-03-18T21:44:03.439Z,15.40
2023-03-18T21:49:05.911Z,11.90
2023-03-18T21:54:18.475Z,13.00
2023-03-18T21:59:20.024Z,13.00
2023-03-18T22:04:22.222Z,13.30
2023-03-18T22:09:26.604Z,12.90
2023-03-18T22:14:28.225Z,14.00
2023-03-18T22:19:29.757Z,12.20
2023-03-18T22:24:31.298Z,12.90
2023-03-18T22:29:32.825Z,13.90
2023-03-18T22:34:34.349Z,13.10
2023-03-18T22:39:35.817Z,14.40
2023-03-18T22:44:37.310Z,13.50
2023-03-18T22:49:39.162Z,15.70
2023-03-18T22:54:40.832Z,17.90
2023-03-18T22:59:42.351Z,16.80
2023-03-18T23:04:44.618Z,22.30
2023-03-18T23:09:56.288Z,18.10
2023-03-18T23:14:59.238Z,14.80
2023-03-18T23:20:00.879Z,14.70
2023-03-18T23:25:03.392Z,13.00
2023-03-18T23:30:06.821Z,13.70
2023-03-18T23:35:09.451Z,14.00
2023-03-18T23:40:11.597Z,13.40
2023-03-18T23:45:13.369Z,12.90
2023-03-18T23:50:14.973Z,11.60
2023-03-18T23:55:33.205Z,15.60
